Bates, Idaho
Current Conditions -  °F | °C
As of 9:56 AM on Saturday 22 Nov 2014 (Local Time) from KDIJ Reporting Station
Haze Haze  
Wind Chill: 22°   Ceiling: 300
Heat Index: 33°   Visibility: 1mi
Dew Point: 32°   Wind: 16mph
Humidity: 96%   Direction: 190°S
Pressure: 29.67"   Gusts: NA
Location:  43.7205°N, 111.251°W
Report Text: KDIJ 221656Z AUTO 19014KT 1SM BR BKN003 BKN011 OVC075 01/00 A2967 RMK AO2 T00050000 CIG 001V006 UPB19E49 P0000 SLP035
Loading
Personal Weather Stations






























Interactive Weather Map New forecast layout! Learn more

10-Day Weather Forecast

Advertisements
Track Severe Weather on mobile